createdAt,value
2022-11-10T00:01:38.662Z,2.83
2022-11-10T00:04:26.106Z,2.30
2022-11-10T00:07:13.432Z,2.50
2022-11-10T00:10:01.009Z,2.47
2022-11-10T00:12:48.234Z,4.10
2022-11-10T00:15:54.427Z,4.03
2022-11-10T00:18:41.653Z,2.05
2022-11-10T00:21:28.840Z,3.33
2022-11-10T00:24:18.613Z,2.85
2022-11-10T00:27:06.044Z,2.97
2022-11-10T00:29:53.596Z,1.80
2022-11-10T00:32:41.936Z,3.13
2022-11-10T00:35:29.338Z,4.07
2022-11-10T00:38:16.458Z,2.00
2022-11-10T00:41:04.080Z,2.92
2022-11-10T00:43:51.586Z,1.35
2022-11-10T00:46:38.782Z,3.60
2022-11-10T00:49:27.593Z,4.40
2022-11-10T00:52:15.014Z,2.70
2022-11-10T00:55:02.494Z,2.30
2022-11-10T00:57:49.679Z,2.08
2022-11-10T01:00:36.840Z,3.78
2022-11-10T01:03:24.473Z,2.63
2022-11-10T01:06:15.197Z,3.13
2022-11-10T01:09:02.523Z,2.83
2022-11-10T01:11:49.758Z,3.13
2022-11-10T01:14:37.233Z,2.65
2022-11-10T01:17:24.613Z,2.15
2022-11-10T01:20:12.306Z,2.58
2022-11-10T01:23:01.007Z,2.47
2022-11-10T01:25:48.223Z,3.80
2022-11-10T01:28:36.213Z,2.15
2022-11-10T01:31:23.464Z,2.40
2022-11-10T01:34:10.575Z,3.42
2022-11-10T01:36:57.786Z,1.45
2022-11-10T01:39:46.376Z,1.85
2022-11-10T01:42:42.647Z,2.78
2022-11-10T01:45:46.634Z,4.45
2022-11-10T01:48:35.512Z,2.75
2022-11-10T01:51:24.821Z,2.58
2022-11-10T01:54:13.429Z,4.68
2022-11-10T01:57:04.133Z,1.48
2022-11-10T01:59:51.461Z,2.95
2022-11-10T02:02:41.173Z,2.42
2022-11-10T02:05:28.704Z,1.42
2022-11-10T02:08:17.284Z,2.28
2022-11-10T02:11:04.482Z,4.00
2022-11-10T02:13:53.132Z,2.22
2022-11-10T02:16:41.222Z,3.17
2022-11-10T02:19:28.527Z,3.30
2022-11-10T02:22:17.187Z,1.58
2022-11-10T02:25:07.900Z,2.40
2022-11-10T02:27:55.009Z,4.20
2022-11-10T02:30:42.218Z,2.47
2022-11-10T02:33:29.228Z,3.00
2022-11-10T02:36:16.345Z,3.13
2022-11-10T02:39:05.503Z,2.85
2022-11-10T02:41:52.736Z,2.63
2022-11-10T02:44:40.417Z,2.17
2022-11-10T02:47:27.901Z,3.58
2022-11-10T02:50:15.065Z,3.97
2022-11-10T02:53:04.933Z,3.00
2022-11-10T02:55:53.897Z,2.97
2022-11-10T02:58:41.213Z,4.97
2022-11-10T03:01:28.499Z,6.05
2022-11-10T03:04:15.732Z,2.80
2022-11-10T03:07:03.270Z,3.80
2022-11-10T03:09:50.069Z,3.25
2022-11-10T03:12:38.575Z,5.13
2022-11-10T03:15:26.552Z,5.47
2022-11-10T03:18:13.712Z,4.93
2022-11-10T03:21:00.957Z,3.22
2022-11-10T03:23:48.318Z,2.75
2022-11-10T03:26:35.441Z,4.03
2022-11-10T03:29:24.334Z,2.67
2022-11-10T03:32:11.487Z,2.65
2022-11-10T03:35:00.663Z,3.63
2022-11-10T03:37:47.939Z,4.00
2022-11-10T03:40:56.874Z,3.20
2022-11-10T03:43:42.931Z,4.40
2022-11-10T03:46:32.893Z,3.72
2022-11-10T03:49:20.087Z,1.90
2022-11-10T03:52:07.322Z,3.92
2022-11-10T03:54:58.036Z,2.78
2022-11-10T03:57:47.923Z,4.18
2022-11-10T04:00:35.482Z,2.90
2022-11-10T04:03:24.085Z,3.50
2022-11-10T04:06:29.693Z,4.57
2022-11-10T04:09:16.798Z,3.85
2022-11-10T04:12:24.800Z,4.10
2022-11-10T04:15:34.949Z,2.95
2022-11-10T04:18:24.909Z,4.32
2022-11-10T04:21:12.447Z,4.85
2022-11-10T04:23:59.476Z,4.38
2022-11-10T04:26:47.754Z,5.55
2022-11-10T04:29:34.909Z,2.78
2022-11-10T04:32:21.834Z,3.97
2022-11-10T04:35:11.089Z,4.10
2022-11-10T04:37:58.269Z,3.25
2022-11-10T04:40:45.266Z,2.38
2022-11-10T04:43:32.463Z,3.90
2022-11-10T04:46:24.436Z,4.40
2022-11-10T04:49:11.979Z,4.05
2022-11-10T04:52:01.011Z,3.72
2022-11-10T04:55:12.714Z,4.72
2022-11-10T04:57:59.882Z,5.32
2022-11-10T05:00:47.111Z,5.53
2022-11-10T05:03:34.069Z,4.18
2022-11-10T05:06:21.169Z,4.80
2022-11-10T05:09:09.789Z,4.03
2022-11-10T05:11:56.916Z,5.00
2022-11-10T05:14:43.920Z,3.83
2022-11-10T05:17:31.505Z,5.20
2022-11-10T05:20:19.314Z,5.38
2022-11-10T05:23:24.123Z,5.75
2022-11-10T05:26:14.140Z,3.95
2022-11-10T05:29:01.525Z,4.60
2022-11-10T05:31:51.504Z,3.60
2022-11-10T05:34:39.047Z,3.67
2022-11-10T05:37:27.676Z,4.78
2022-11-10T05:40:15.808Z,4.70
2022-11-10T05:43:04.703Z,3.28
2022-11-10T05:45:52.799Z,3.35
2022-11-10T05:48:40.476Z,5.15
2022-11-10T05:51:27.660Z,3.50
2022-11-10T05:54:14.674Z,2.17
2022-11-10T05:57:01.799Z,3.30
2022-11-10T05:59:50.384Z,5.47
2022-11-10T06:02:37.570Z,4.15
2022-11-10T06:05:29.816Z,3.30
2022-11-10T06:08:18.459Z,5.43
2022-11-10T06:11:05.952Z,4.10
2022-11-10T06:13:53.291Z,4.93
2022-11-10T06:16:42.078Z,6.75
2022-11-10T06:19:29.356Z,5.85
2022-11-10T06:22:16.597Z,7.38
2022-11-10T06:25:04.318Z,6.57
2022-11-10T06:27:51.942Z,5.55
2022-11-10T06:30:39.560Z,3.20
2022-11-10T06:33:28.386Z,3.72
2022-11-10T06:36:15.513Z,4.80
2022-11-10T06:39:02.717Z,9.70
2022-11-10T06:41:50.156Z,7.55
2022-11-10T06:44:37.968Z,9.82
2022-11-10T06:47:25.130Z,6.18
2022-11-10T06:50:13.883Z,8.27
2022-11-10T06:53:01.543Z,8.23
2022-11-10T06:55:48.888Z,8.40
2022-11-10T06:58:36.056Z,6.38
2022-11-10T07:01:26.753Z,5.95
2022-11-10T07:04:20.395Z,5.13
2022-11-10T07:09:55.971Z,4.88
2022-11-10T07:12:43.149Z,8.60
2022-11-10T07:15:30.647Z,7.47
2022-11-10T07:18:18.064Z,6.10
2022-11-10T07:21:05.281Z,7.00
2022-11-10T07:23:52.543Z,6.47
2022-11-10T07:26:41.111Z,7.20
2022-11-10T07:29:28.376Z,7.28
2022-11-10T07:32:15.642Z,8.38
2022-11-10T07:35:02.554Z,7.40
2022-11-10T07:37:49.522Z,5.18
2022-11-10T07:40:36.826Z,5.22
2022-11-10T07:43:26.456Z,3.28
2022-11-10T07:46:13.516Z,2.15
2022-11-10T07:49:00.663Z,3.78
2022-11-10T07:51:48.004Z,5.40
2022-11-10T07:54:35.214Z,3.58
2022-11-10T07:57:22.773Z,4.03
2022-11-10T08:00:23.411Z,2.78
2022-11-10T08:03:12.314Z,5.18
2022-11-10T08:05:59.679Z,3.03
2022-11-10T08:08:47.762Z,2.30
2022-11-10T08:11:36.049Z,4.30
2022-11-10T08:14:23.654Z,2.97
2022-11-10T08:17:12.397Z,3.28
2022-11-10T08:19:59.717Z,3.40
2022-11-10T08:22:46.908Z,3.08
2022-11-10T08:25:35.716Z,4.13
2022-11-10T08:28:23.369Z,2.72
2022-11-10T08:31:11.010Z,2.85
2022-11-10T08:33:59.792Z,2.63
2022-11-10T08:36:47.573Z,1.73
2022-11-10T08:39:41.305Z,3.25
2022-11-10T08:42:28.683Z,3.50
2022-11-10T08:45:16.382Z,3.03
2022-11-10T08:48:04.286Z,2.55
2022-11-10T08:50:53.064Z,1.85
2022-11-10T08:53:40.381Z,2.13
2022-11-10T08:56:27.861Z,2.05
2022-11-10T08:59:15.252Z,3.50
2022-11-10T09:02:02.590Z,2.15
2022-11-10T09:04:50.141Z,2.17
2022-11-10T09:07:45.801Z,2.30
2022-11-10T09:10:32.955Z,2.20
2022-11-10T09:13:27.895Z,2.83
2022-11-10T09:16:17.065Z,2.65
2022-11-10T09:19:04.103Z,1.70
2022-11-10T09:21:51.269Z,2.75
2022-11-10T09:24:39.817Z,1.67
2022-11-10T09:27:26.840Z,1.92
2022-11-10T09:30:17.671Z,1.92
2022-11-10T09:33:05.762Z,2.45
2022-11-10T09:35:53.070Z,1.90
2022-11-10T09:38:41.008Z,2.13
2022-11-10T09:41:30.159Z,2.50
2022-11-10T09:44:20.293Z,1.27
2022-11-10T09:47:12.375Z,2.92
2022-11-10T09:50:03.468Z,3.30
2022-11-10T09:52:51.826Z,2.42
2022-11-10T09:55:43.469Z,1.40
2022-11-10T09:58:35.517Z,2.47
2022-11-10T10:01:35.713Z,1.77
2022-11-10T10:04:34.883Z,1.95
2022-11-10T10:07:28.183Z,2.65
2022-11-10T10:10:22.420Z,2.88
2022-11-10T10:13:22.750Z,2.33
2022-11-10T10:16:16.270Z,1.30
2022-11-10T10:19:08.061Z,1.45
2022-11-10T10:22:04.137Z,1.65
2022-11-10T10:24:53.511Z,4.60
2022-11-10T10:27:42.131Z,3.78
2022-11-10T10:30:29.891Z,2.20
2022-11-10T10:33:19.637Z,2.83
2022-11-10T10:36:09.778Z,2.45
2022-11-10T10:38:58.273Z,2.60
2022-11-10T10:41:48.892Z,2.35
2022-11-10T10:44:36.393Z,1.98
2022-11-10T10:47:37.189Z,2.08
2022-11-10T10:50:27.328Z,2.45
2022-11-10T10:53:16.928Z,2.58
2022-11-10T10:56:08.685Z,1.92
2022-11-10T10:58:57.380Z,1.75
2022-11-10T11:01:45.544Z,2.53
2022-11-10T11:04:34.139Z,2.10
2022-11-10T11:07:24.550Z,1.98
2022-11-10T11:10:23.498Z,2.75
2022-11-10T11:13:17.507Z,2.25
2022-11-10T11:16:07.506Z,2.65
2022-11-10T11:18:54.880Z,2.20
2022-11-10T11:21:46.385Z,1.88
2022-11-10T11:24:39.419Z,2.08
2022-11-10T11:27:30.324Z,1.95
2022-11-10T11:30:18.357Z,1.52
2022-11-10T11:33:14.925Z,2.30
2022-11-10T11:36:05.787Z,2.10
2022-11-10T11:38:56.496Z,2.38
2022-11-10T11:41:48.111Z,2.35
2022-11-10T11:44:45.656Z,1.42
2022-11-10T11:47:45.296Z,2.42
2022-11-10T11:50:37.291Z,1.77
2022-11-10T11:53:36.453Z,2.08
2022-11-10T11:56:26.108Z,2.45
2022-11-10T11:59:21.866Z,2.70
2022-11-10T12:02:24.341Z,2.55
2022-11-10T12:05:38.800Z,2.40
2022-11-10T12:08:31.273Z,2.08
2022-11-10T12:11:22.186Z,3.33
2022-11-10T12:14:15.890Z,2.95
2022-11-10T12:17:08.166Z,1.83
2022-11-10T12:20:01.133Z,2.97
2022-11-10T12:22:53.362Z,1.35
2022-11-10T12:25:45.215Z,1.40
2022-11-10T12:28:34.577Z,2.80
2022-11-10T12:31:23.736Z,1.70
2022-11-10T12:34:16.691Z,2.05
2022-11-10T12:37:05.345Z,1.63
2022-11-10T12:39:55.446Z,2.80
2022-11-10T12:42:43.809Z,2.58
2022-11-10T12:45:33.553Z,2.33
2022-11-10T12:48:21.957Z,1.63
2022-11-10T12:51:15.509Z,2.15
2022-11-10T12:56:57.865Z,2.25
2022-11-10T12:59:51.815Z,1.65
2022-11-10T13:02:40.901Z,2.30
2022-11-10T13:05:33.536Z,2.45
2022-11-10T13:08:27.639Z,2.85
2022-11-10T13:11:29.621Z,2.75
2022-11-10T13:14:24.532Z,2.45
2022-11-10T13:17:12.192Z,1.45
2022-11-10T13:20:14.163Z,1.83
2022-11-10T13:23:23.048Z,1.55
2022-11-10T13:26:13.004Z,3.10
2022-11-10T13:29:02.778Z,2.05
2022-11-10T13:31:54.522Z,1.70
2022-11-10T13:34:42.441Z,2.47
2022-11-10T13:37:50.764Z,2.70
2022-11-10T13:40:39.777Z,1.50
2022-11-10T13:43:29.179Z,3.47
2022-11-10T13:46:20.109Z,1.90
2022-11-10T13:49:30.099Z,1.63
2022-11-10T13:52:18.098Z,1.00
2022-11-10T13:55:16.209Z,1.98
2022-11-10T13:58:05.550Z,1.80
2022-11-10T14:01:17.677Z,4.90
2022-11-10T14:04:19.234Z,4.63
2022-11-10T14:07:14.172Z,3.60
2022-11-10T14:10:05.321Z,7.68
2022-11-10T14:12:54.326Z,6.32
2022-11-10T14:15:42.362Z,3.15
2022-11-10T14:18:40.299Z,6.00
2022-11-10T14:21:30.985Z,4.43
2022-11-10T14:24:22.119Z,2.38
2022-11-10T14:27:10.127Z,3.17
2022-11-10T14:30:15.940Z,3.65
2022-11-10T14:33:04.267Z,3.00
2022-11-10T14:35:55.041Z,3.22
2022-11-10T14:38:45.117Z,2.17
2022-11-10T14:41:32.393Z,3.75
2022-11-10T14:44:23.648Z,2.17
2022-11-10T14:47:17.392Z,2.90
2022-11-10T14:50:05.822Z,2.15
2022-11-10T14:52:57.929Z,2.72
2022-11-10T14:55:48.505Z,2.10
2022-11-10T14:58:40.648Z,1.75
2022-11-10T15:01:29.316Z,2.25
2022-11-10T15:04:17.459Z,2.88
2022-11-10T15:07:04.846Z,2.05
2022-11-10T15:10:09.503Z,2.60
2022-11-10T15:13:00.739Z,2.78
2022-11-10T15:15:48.067Z,4.00
2022-11-10T15:18:35.567Z,5.43
2022-11-10T15:21:24.200Z,4.35
2022-11-10T15:24:12.087Z,5.78
2022-11-10T15:27:01.034Z,4.55
2022-11-10T15:29:48.164Z,5.22
2022-11-10T15:32:36.750Z,4.78
2022-11-10T15:35:29.097Z,5.82
2022-11-10T15:38:32.941Z,6.18
2022-11-10T15:41:27.405Z,5.50
2022-11-10T15:44:20.920Z,7.75
2022-11-10T15:47:08.500Z,6.68
2022-11-10T15:49:57.287Z,6.82
2022-11-10T15:52:44.941Z,8.70
2022-11-10T15:55:34.775Z,9.65
2022-11-10T15:58:23.247Z,7.70
2022-11-10T16:01:13.653Z,9.02
2022-11-10T16:04:00.583Z,5.88
2022-11-10T16:06:48.535Z,7.28
2022-11-10T16:09:36.338Z,7.63
2022-11-10T16:12:24.131Z,8.35
2022-11-10T16:15:16.877Z,5.80
2022-11-10T16:18:05.460Z,4.57
2022-11-10T16:20:53.074Z,4.68
2022-11-10T16:23:40.222Z,3.72
2022-11-10T16:26:28.236Z,4.53
2022-11-10T16:29:16.610Z,4.82
2022-11-10T16:32:05.427Z,7.20
2022-11-10T16:34:55.392Z,3.97
2022-11-10T16:37:43.672Z,3.15
2022-11-10T16:40:31.180Z,4.18
2022-11-10T16:43:19.206Z,2.80
2022-11-10T16:46:08.161Z,2.65
2022-11-10T16:48:56.810Z,3.45
2022-11-10T16:51:49.054Z,6.57
2022-11-10T16:54:36.259Z,4.25
2022-11-10T16:57:24.190Z,5.18
2022-11-10T17:00:12.089Z,2.72
2022-11-10T17:03:02.749Z,6.78
2022-11-10T17:05:53.366Z,4.40
2022-11-10T17:08:42.383Z,3.85
2022-11-10T17:11:29.311Z,2.95
2022-11-10T17:14:16.824Z,4.45
2022-11-10T17:17:04.237Z,3.05
2022-11-10T17:19:52.193Z,2.60
2022-11-10T17:22:39.439Z,4.88
2022-11-10T17:25:29.244Z,2.75
2022-11-10T17:28:17.920Z,2.22
2022-11-10T17:31:05.297Z,2.63
2022-11-10T17:33:52.755Z,3.95
2022-11-10T17:36:40.412Z,4.90
2022-11-10T17:39:27.866Z,4.25
2022-11-10T17:42:16.649Z,2.65
2022-11-10T17:45:04.038Z,3.00
2022-11-10T17:47:52.046Z,4.10
2022-11-10T17:50:39.876Z,4.28
2022-11-10T17:53:28.643Z,1.92
2022-11-10T17:56:16.034Z,1.83
2022-11-10T17:59:04.951Z,1.63
2022-11-10T18:01:52.632Z,3.40
2022-11-10T18:04:40.174Z,2.00
2022-11-10T18:07:27.788Z,2.97
2022-11-10T18:10:15.627Z,2.10
2022-11-10T18:13:41.762Z,4.20
2022-11-10T18:16:30.642Z,3.30
2022-11-10T18:19:23.904Z,4.10
2022-11-10T18:22:12.026Z,6.15
2022-11-10T18:24:59.261Z,3.65
2022-11-10T18:27:46.334Z,6.70
2022-11-10T18:30:35.235Z,4.97
2022-11-10T18:33:25.383Z,3.85
2022-11-10T18:36:13.074Z,4.88
2022-11-10T18:38:59.870Z,4.22
2022-11-10T18:41:53.782Z,4.53
2022-11-10T18:44:41.410Z,4.68
2022-11-10T18:47:41.304Z,4.55
2022-11-10T18:50:30.863Z,3.55
2022-11-10T18:53:18.511Z,3.00
2022-11-10T18:56:05.760Z,4.47
2022-11-10T18:58:56.573Z,8.82
2022-11-10T19:01:44.991Z,6.03
2022-11-10T19:04:32.835Z,4.15
2022-11-10T19:07:23.572Z,2.10
2022-11-10T19:10:10.719Z,2.72
2022-11-10T19:13:01.271Z,1.58
2022-11-10T19:15:48.834Z,3.60
2022-11-10T19:21:29.551Z,4.95
2022-11-10T19:24:27.967Z,4.55
2022-11-10T19:27:16.611Z,2.60
2022-11-10T19:30:03.807Z,3.45
2022-11-10T19:32:53.265Z,1.67
2022-11-10T19:35:42.460Z,2.08
2022-11-10T19:38:31.562Z,2.75
2022-11-10T19:41:19.709Z,2.65
2022-11-10T19:44:08.417Z,5.05
2022-11-10T19:46:55.460Z,4.82
2022-11-10T19:49:42.584Z,5.07
2022-11-10T19:52:29.997Z,3.42
2022-11-10T19:55:19.453Z,3.10
2022-11-10T19:58:06.701Z,2.28
2022-11-10T20:00:55.737Z,2.95
2022-11-10T20:03:43.629Z,4.18
2022-11-10T20:06:31.157Z,2.95
2022-11-10T20:09:18.416Z,2.25
2022-11-10T20:12:07.312Z,1.75
2022-11-10T20:14:54.564Z,2.50
2022-11-10T20:17:42.067Z,3.28
2022-11-10T20:20:29.326Z,4.10
2022-11-10T20:23:19.290Z,2.22
2022-11-10T20:26:07.367Z,1.85
2022-11-10T20:28:56.222Z,1.73
2022-11-10T20:31:43.553Z,1.80
2022-11-10T20:34:30.891Z,2.55
2022-11-10T20:37:18.495Z,1.38
2022-11-10T20:40:13.997Z,1.50
2022-11-10T20:43:12.036Z,2.55
2022-11-10T20:46:00.584Z,1.23
2022-11-10T20:48:48.404Z,1.77
2022-11-10T20:51:35.529Z,2.95
2022-11-10T20:54:23.739Z,2.83
2022-11-10T20:57:10.753Z,2.92
2022-11-10T20:59:57.991Z,2.97
2022-11-10T21:02:46.499Z,2.65
2022-11-10T21:05:33.987Z,3.20
2022-11-10T21:08:21.423Z,2.97
2022-11-10T21:11:09.557Z,2.35
2022-11-10T21:13:55.729Z,2.90
2022-11-10T21:16:42.784Z,2.97
2022-11-10T21:19:33.640Z,1.85
2022-11-10T21:22:21.301Z,1.35
2022-11-10T21:25:08.968Z,2.55
2022-11-10T21:27:56.153Z,1.65
2022-11-10T21:30:46.597Z,2.35
2022-11-10T21:33:33.617Z,1.90
2022-11-10T21:36:22.285Z,2.95
2022-11-10T21:39:09.683Z,2.03
2022-11-10T21:41:56.750Z,2.13
2022-11-10T21:44:44.007Z,3.40
2022-11-10T21:47:32.235Z,1.98
2022-11-10T21:50:19.913Z,1.85
2022-11-10T21:53:09.054Z,1.30
2022-11-10T21:55:58.686Z,1.20
2022-11-10T21:58:45.645Z,2.47
2022-11-10T22:01:33.021Z,1.63
2022-11-10T22:04:20.149Z,1.90
2022-11-10T22:07:25.784Z,2.35
2022-11-10T22:10:31.650Z,2.08
2022-11-10T22:13:36.715Z,1.00
2022-11-10T22:16:41.742Z,2.08
2022-11-10T22:19:28.968Z,2.63
2022-11-10T22:22:16.283Z,1.20
2022-11-10T22:25:03.356Z,0.75
2022-11-10T22:27:52.070Z,1.20
2022-11-10T22:30:39.186Z,1.25
2022-11-10T22:33:28.973Z,1.38
2022-11-10T22:36:17.013Z,2.05
2022-11-10T22:39:05.583Z,2.13
2022-11-10T22:42:09.807Z,1.55
2022-11-10T22:44:58.732Z,3.13
2022-11-10T22:48:06.491Z,1.73
2022-11-10T22:50:57.044Z,2.42
2022-11-10T22:53:44.026Z,1.48
2022-11-10T22:56:32.147Z,2.13
2022-11-10T22:59:19.603Z,2.83
2022-11-10T23:02:08.407Z,2.97
2022-11-10T23:04:55.728Z,0.75
2022-11-10T23:07:42.783Z,2.30
2022-11-10T23:10:30.457Z,2.85
2022-11-10T23:13:17.721Z,1.67
2022-11-10T23:16:05.623Z,1.52
2022-11-10T23:18:54.913Z,1.80
2022-11-10T23:21:42.199Z,1.45
2022-11-10T23:24:29.222Z,2.35
2022-11-10T23:27:16.208Z,1.88
2022-11-10T23:30:03.406Z,1.38
2022-11-10T23:32:50.683Z,3.40
2022-11-10T23:35:39.095Z,2.05
2022-11-10T23:38:26.440Z,2.17
2022-11-10T23:41:14.737Z,2.47
2022-11-10T23:44:01.891Z,3.97
2022-11-10T23:46:49.064Z,1.92
2022-11-10T23:49:35.845Z,3.03
2022-11-10T23:52:24.454Z,1.95
2022-11-10T23:55:11.293Z,2.72
2022-11-10T23:57:58.426Z,3.55
